KGYY/GYY METAR and TAF weather

Enter ICAO airport designator
Station Type Date Time Source
KGYY METAR 2019/05/19 19:45 UTC NOAA

KGYY 191945Z 23014G25KT 10SM SCT044 SCT075 26/14 A2960


Station Type Date Time Source
KGYY Decoded METAR 2019/05/19 19:45 UTC NOAA

Gary Regional, IN, United States (KGYY) 41-37N 087-25W
May 19, 2019 - 03:45 PM EDT / 2019.05.19 1945 UTC
Wind: from the SW (230 degrees) at 16 MPH (14 KT) gusting to 29 MPH (25 KT):0
Visibility: 10 mile(s):0
Sky conditions: partly cloudy
Temperature: 78 F (26 C)
Dew Point: 57 F (14 C)
Relative Humidity: 47%
Pressure (altimeter): 29.6 in. Hg (1002 hPa)
ob: KGYY 191945Z 23014G25KT 10SM SCT044 SCT075 26/14 A2960
cycle: 20

Station Type Date Time Source
KGYY TAF 2019/05/19 19:30 UTC NOAA

TAF
AMD KGYY 191927Z 1919/2018 20015G25KT P6SM VCTS SCT050CB
FM192130 23025G35KT P6SM SCT050
FM200200 26015G25KT P6SM BKN025
FM201000 32012KT P6SM SCT025

Example: see airport list